sensor_id;sensor_type;location;lat;lon;timestamp;pressure;altitude;pressure_sealevel;temperature;humidity
13732;BME280;6937;56.096;12.664;2023-09-19T00:00:00;98356.97;;;19.40;100.00
13732;BME280;6937;56.096;12.664;2023-09-19T00:02:26;98363.03;;;19.42;100.00
13732;BME280;6937;56.096;12.664;2023-09-19T00:04:52;98362.81;;;19.44;100.00
13732;BME280;6937;56.096;12.664;2023-09-19T00:07:17;98356.56;;;19.43;100.00
13732;BME280;6937;56.096;12.664;2023-09-19T00:09:42;98353.63;;;19.45;100.00
13732;BME280;6937;56.096;12.664;2023-09-19T00:12:09;98350.31;;;19.43;100.00
13732;BME280;6937;56.096;12.664;2023-09-19T00:14:35;98363.63;;;19.44;100.00
13732;BME280;6937;56.096;12.664;2023-09-19T00:17:01;98357.19;;;19.39;100.00
13732;BME280;6937;56.096;12.664;2023-09-19T00:19:32;98366.78;;;19.41;100.00
13732;BME280;6937;56.096;12.664;2023-09-19T00:21:58;98364.94;;;19.42;100.00
13732;BME280;6937;56.096;12.664;2023-09-19T00:24:23;98366.59;;;19.36;100.00
13732;BME280;6937;56.096;12.664;2023-09-19T00:26:49;98368.34;;;19.30;100.00
13732;BME280;6937;56.096;12.664;2023-09-19T00:29:14;98377.91;;;19.33;100.00
13732;BME280;6937;56.096;12.664;2023-09-19T00:31:44;98360.22;;;19.30;100.00
13732;BME280;6937;56.096;12.664;2023-09-19T00:34:10;98388.34;;;19.29;100.00
13732;BME280;6937;56.096;12.664;2023-09-19T00:36:39;98367.16;;;19.26;100.00
13732;BME280;6937;56.096;12.664;2023-09-19T00:39:08;98383.78;;;19.30;100.00
13732;BME280;6937;56.096;12.664;2023-09-19T00:41:33;98386.94;;;19.27;100.00
13732;BME280;6937;56.096;12.664;2023-09-19T00:44:01;98383.16;;;19.28;100.00
13732;BME280;6937;56.096;12.664;2023-09-19T00:46:27;98396.09;;;19.26;100.00
13732;BME280;6937;56.096;12.664;2023-09-19T00:48:52;98394.66;;;19.23;100.00
13732;BME280;6937;56.096;12.664;2023-09-19T00:51:19;98393.00;;;19.22;100.00
13732;BME280;6937;56.096;12.664;2023-09-19T00:53:47;98399.66;;;19.26;100.00
13732;BME280;6937;56.096;12.664;2023-09-19T00:56:14;98401.72;;;19.24;100.00
13732;BME280;6937;56.096;12.664;2023-09-19T00:58:40;98397.16;;;19.25;100.00
13732;BME280;6937;56.096;12.664;2023-09-19T01:01:06;98387.97;;;19.26;100.00
13732;BME280;6937;56.096;12.664;2023-09-19T01:03:33;98374.28;;;19.21;100.00
13732;BME280;6937;56.096;12.664;2023-09-19T01:06:01;98365.47;;;19.25;100.00
13732;BME280;6937;56.096;12.664;2023-09-19T01:08:27;98380.91;;;19.25;100.00
13732;BME280;6937;56.096;12.664;2023-09-19T01:11:09;98362.09;;;19.30;100.00
13732;BME280;6937;56.096;12.664;2023-09-19T01:16:46;98334.56;;;19.33;100.00
13732;BME280;6937;56.096;12.664;2023-09-19T01:22:20;98312.91;;;19.33;100.00
13732;BME280;6937;56.096;12.664;2023-09-19T01:25:04;98298.75;;;19.31;100.00
13732;BME280;6937;56.096;12.664;2023-09-19T01:27:55;98283.09;;;19.33;100.00
13732;BME280;6937;56.096;12.664;2023-09-19T01:30:32;98263.31;;;19.33;100.00
13732;BME280;6937;56.096;12.664;2023-09-19T01:32:59;98243.31;;;19.34;100.00
13732;BME280;6937;56.096;12.664;2023-09-19T01:35:25;98218.69;;;19.35;100.00
13732;BME280;6937;56.096;12.664;2023-09-19T01:37:51;98210.28;;;19.43;100.00
13732;BME280;6937;56.096;12.664;2023-09-19T01:40:18;98185.91;;;19.43;100.00
13732;BME280;6937;56.096;12.664;2023-09-19T01:43:10;98166.72;;;19.45;100.00
13732;BME280;6937;56.096;12.664;2023-09-19T01:51:03;98163.41;;;19.43;100.00
13732;BME280;6937;56.096;12.664;2023-09-19T01:53:41;98171.53;;;19.43;100.00
13732;BME280;6937;56.096;12.664;2023-09-19T01:56:12;98166.94;;;19.43;100.00
13732;BME280;6937;56.096;12.664;2023-09-19T01:58:45;98167.19;;;19.42;100.00
13732;BME280;6937;56.096;12.664;2023-09-19T02:01:17;98179.88;;;19.41;100.00
13732;BME280;6937;56.096;12.664;2023-09-19T02:03:46;98188.22;;;19.40;100.00
13732;BME280;6937;56.096;12.664;2023-09-19T02:06:16;98188.06;;;19.35;100.00
13732;BME280;6937;56.096;12.664;2023-09-19T02:08:42;98198.91;;;19.35;100.00
13732;BME280;6937;56.096;12.664;2023-09-19T02:11:08;98206.66;;;19.31;100.00
13732;BME280;6937;56.096;12.664;2023-09-19T02:13:33;98218.88;;;19.22;100.00
13732;BME280;6937;56.096;12.664;2023-09-19T02:15:59;98238.06;;;19.20;100.00
13732;BME280;6937;56.096;12.664;2023-09-19T02:18:25;98246.72;;;19.11;100.00
13732;BME280;6937;56.096;12.664;2023-09-19T02:20:53;98259.44;;;19.10;100.00
13732;BME280;6937;56.096;12.664;2023-09-19T02:23:18;98292.59;;;19.06;100.00
13732;BME280;6937;56.096;12.664;2023-09-19T02:25:54;98292.88;;;18.98;100.00
13732;BME280;6937;56.096;12.664;2023-09-19T02:28:19;98318.97;;;18.92;100.00
13732;BME280;6937;56.096;12.664;2023-09-19T02:30:48;98305.09;;;18.82;100.00
13732;BME280;6937;56.096;12.664;2023-09-19T02:33:14;98320.75;;;18.80;100.00
13732;BME280;6937;56.096;12.664;2023-09-19T02:35:40;98326.63;;;18.77;100.00
13732;BME280;6937;56.096;12.664;2023-09-19T02:38:05;98343.53;;;18.72;100.00
13732;BME280;6937;56.096;12.664;2023-09-19T02:40:32;98345.38;;;18.72;100.00
13732;BME280;6937;56.096;12.664;2023-09-19T02:43:01;98350.22;;;18.70;100.00
13732;BME280;6937;56.096;12.664;2023-09-19T02:45:27;98344.63;;;18.65;100.00
13732;BME280;6937;56.096;12.664;2023-09-19T02:47:53;98352.94;;;18.63;100.00
13732;BME280;6937;56.096;12.664;2023-09-19T02:50:20;98365.44;;;18.64;100.00
13732;BME280;6937;56.096;12.664;2023-09-19T02:52:46;98354.84;;;18.63;100.00
13732;BME280;6937;56.096;12.664;2023-09-19T02:55:16;98351.53;;;18.61;100.00
13732;BME280;6937;56.096;12.664;2023-09-19T02:57:48;98344.69;;;18.58;100.00
13732;BME280;6937;56.096;12.664;2023-09-19T03:00:15;98357.59;;;18.56;100.00
13732;BME280;6937;56.096;12.664;2023-09-19T03:02:40;98349.31;;;18.51;100.00
13732;BME280;6937;56.096;12.664;2023-09-19T03:05:07;98349.31;;;18.51;100.00
13732;BME280;6937;56.096;12.664;2023-09-19T03:07:33;98356.78;;;18.49;100.00
13732;BME280;6937;56.096;12.664;2023-09-19T03:09:59;98355.34;;;18.47;100.00
13732;BME280;6937;56.096;12.664;2023-09-19T03:12:25;98358.50;;;18.44;100.00
13732;BME280;6937;56.096;12.664;2023-09-19T03:14:50;98354.78;;;18.38;100.00
13732;BME280;6937;56.096;12.664;2023-09-19T03:17:16;98357.50;;;18.38;100.00
13732;BME280;6937;56.096;12.664;2023-09-19T03:19:42;98343.38;;;18.36;100.00
13732;BME280;6937;56.096;12.664;2023-09-19T03:22:07;98353.38;;;18.35;100.00
13732;BME280;6937;56.096;12.664;2023-09-19T03:24:33;98362.31;;;18.36;100.00
13732;BME280;6937;56.096;12.664;2023-09-19T03:26:59;98348.78;;;18.36;100.00
13732;BME280;6937;56.096;12.664;2023-09-19T03:29:25;98350.00;;;18.40;100.00
13732;BME280;6937;56.096;12.664;2023-09-19T03:31:50;98351.50;;;18.36;100.00
13732;BME280;6937;56.096;12.664;2023-09-19T03:34:16;98342.75;;;18.34;100.00
13732;BME280;6937;56.096;12.664;2023-09-19T03:36:42;98353.38;;;18.35;100.00
13732;BME280;6937;56.096;12.664;2023-09-19T03:39:07;98339.00;;;18.35;100.00
13732;BME280;6937;56.096;12.664;2023-09-19T03:41:32;98355.25;;;18.35;100.00
13732;BME280;6937;56.096;12.664;2023-09-19T03:43:58;98346.09;;;18.36;100.00
13732;BME280;6937;56.096;12.664;2023-09-19T03:46:23;98342.16;;;18.32;100.00
13732;BME280;6937;56.096;12.664;2023-09-19T03:48:50;98356.66;;;18.38;100.00
13732;BME280;6937;56.096;12.664;2023-09-19T03:51:15;98366.66;;;18.37;100.00
13732;BME280;6937;56.096;12.664;2023-09-19T03:53:41;98361.88;;;18.39;100.00
13732;BME280;6937;56.096;12.664;2023-09-19T03:56:06;98365.84;;;18.37;100.00
13732;BME280;6937;56.096;12.664;2023-09-19T03:58:33;98367.09;;;18.34;100.00
13732;BME280;6937;56.096;12.664;2023-09-19T04:01:00;98381.28;;;18.29;100.00
13732;BME280;6937;56.096;12.664;2023-09-19T04:03:25;98388.78;;;18.27;100.00
13732;BME280;6937;56.096;12.664;2023-09-19T04:05:59;98379.25;;;18.25;100.00
13732;BME280;6937;56.096;12.664;2023-09-19T04:08:26;98391.69;;;18.26;100.00
13732;BME280;6937;56.096;12.664;2023-09-19T04:10:51;98390.88;;;18.25;100.00
13732;BME280;6937;56.096;12.664;2023-09-19T04:13:17;98389.22;;;18.24;100.00
13732;BME280;6937;56.096;12.664;2023-09-19T04:15:43;98404.59;;;18.24;100.00
13732;BME280;6937;56.096;12.664;2023-09-19T04:18:08;98412.53;;;18.19;100.00
13732;BME280;6937;56.096;12.664;2023-09-19T04:20:33;98411.09;;;18.16;100.00
13732;BME280;6937;56.096;12.664;2023-09-19T04:22:59;98429.19;;;18.16;100.00
13732;BME280;6937;56.096;12.664;2023-09-19T04:25:25;98422.13;;;18.15;100.00
13732;BME280;6937;56.096;12.664;2023-09-19T04:27:51;98432.94;;;18.15;100.00
13732;BME280;6937;56.096;12.664;2023-09-19T04:30:17;98434.00;;;18.14;100.00
13732;BME280;6937;56.096;12.664;2023-09-19T04:32:42;98419.69;;;18.07;100.00
13732;BME280;6937;56.096;12.664;2023-09-19T04:35:09;98435.91;;;18.07;100.00
13732;BME280;6937;56.096;12.664;2023-09-19T04:37:37;98426.34;;;18.04;100.00
13732;BME280;6937;56.096;12.664;2023-09-19T04:40:04;98452.97;;;18.01;100.00
13732;BME280;6937;56.096;12.664;2023-09-19T04:42:31;98451.97;;;17.95;100.00
13732;BME280;6937;56.096;12.664;2023-09-19T04:44:56;98470.06;;;17.95;100.00
13732;BME280;6937;56.096;12.664;2023-09-19T04:47:22;98493.97;;;17.91;100.00
13732;BME280;6937;56.096;12.664;2023-09-19T04:49:47;98523.25;;;17.94;100.00
13732;BME280;6937;56.096;12.664;2023-09-19T04:52:13;98533.25;;;17.94;100.00
13732;BME280;6937;56.096;12.664;2023-09-19T04:54:40;98548.19;;;17.96;100.00
13732;BME280;6937;56.096;12.664;2023-09-19T04:57:06;98553.19;;;17.93;100.00
13732;BME280;6937;56.096;12.664;2023-09-19T04:59:32;98578.34;;;17.93;100.00
13732;BME280;6937;56.096;12.664;2023-09-19T05:01:58;98575.66;;;17.86;100.00
13732;BME280;6937;56.096;12.664;2023-09-19T05:04:23;98593.53;;;17.81;100.00
13732;BME280;6937;56.096;12.664;2023-09-19T05:06:49;98600.44;;;17.77;100.00
13732;BME280;6937;56.096;12.664;2023-09-19T05:09:14;98611.84;;;17.72;100.00
13732;BME280;6937;56.096;12.664;2023-09-19T05:11:40;98625.56;;;17.71;100.00
13732;BME280;6937;56.096;12.664;2023-09-19T05:14:06;98629.09;;;17.65;100.00
13732;BME280;6937;56.096;12.664;2023-09-19T05:16:31;98646.34;;;17.64;100.00
13732;BME280;6937;56.096;12.664;2023-09-19T05:18:57;98636.78;;;17.61;100.00
13732;BME280;6937;56.096;12.664;2023-09-19T05:21:25;98651.34;;;17.60;100.00
13732;BME280;6937;56.096;12.664;2023-09-19T05:23:54;98656.31;;;17.57;100.00
13732;BME280;6937;56.096;12.664;2023-09-19T05:26:19;98673.94;;;17.53;100.00
13732;BME280;6937;56.096;12.664;2023-09-19T05:28:46;98700.94;;;17.46;100.00
13732;BME280;6937;56.096;12.664;2023-09-19T05:31:13;98734.16;;;17.40;100.00
13732;BME280;6937;56.096;12.664;2023-09-19T05:33:39;98735.41;;;17.37;100.00
13732;BME280;6937;56.096;12.664;2023-09-19T05:36:05;98748.06;;;17.37;100.00
13732;BME280;6937;56.096;12.664;2023-09-19T05:38:30;98752.84;;;17.35;100.00
13732;BME280;6937;56.096;12.664;2023-09-19T05:40:56;98770.06;;;17.34;100.00
13732;BME280;6937;56.096;12.664;2023-09-19T05:43:21;98785.25;;;17.35;100.00
13732;BME280;6937;56.096;12.664;2023-09-19T05:45:46;98794.19;;;17.35;100.00
13732;BME280;6937;56.096;12.664;2023-09-19T05:48:14;98778.38;;;17.32;100.00
13732;BME280;6937;56.096;12.664;2023-09-19T05:50:42;98787.31;;;17.33;100.00
13732;BME280;6937;56.096;12.664;2023-09-19T05:53:07;98791.06;;;17.32;100.00
13732;BME280;6937;56.096;12.664;2023-09-19T05:55:33;98805.38;;;17.32;100.00
13732;BME280;6937;56.096;12.664;2023-09-19T05:57:59;98809.75;;;17.33;100.00
13732;BME280;6937;56.096;12.664;2023-09-19T06:00:25;98801.47;;;17.35;100.00
13732;BME280;6937;56.096;12.664;2023-09-19T06:02:53;98805.78;;;17.29;100.00
13732;BME280;6937;56.096;12.664;2023-09-19T06:05:20;98825.53;;;17.36;100.00
13732;BME280;6937;56.096;12.664;2023-09-19T06:07:45;98824.28;;;17.32;100.00
13732;BME280;6937;56.096;12.664;2023-09-19T06:10:12;98823.69;;;17.37;100.00
13732;BME280;6937;56.096;12.664;2023-09-19T06:12:38;98821.19;;;17.35;100.00
13732;BME280;6937;56.096;12.664;2023-09-19T06:15:04;98834.06;;;17.40;100.00
13732;BME280;6937;56.096;12.664;2023-09-19T06:17:46;98829.50;;;17.40;100.00
13732;BME280;6937;56.096;12.664;2023-09-19T06:20:12;98855.66;;;17.40;100.00
13732;BME280;6937;56.096;12.664;2023-09-19T06:22:42;98859.84;;;17.43;100.00
13732;BME280;6937;56.096;12.664;2023-09-19T06:25:12;98874.66;;;17.53;100.00
13732;BME280;6937;56.096;12.664;2023-09-19T06:27:38;98879.81;;;17.55;100.00
13732;BME280;6937;56.096;12.664;2023-09-19T06:30:07;98918.03;;;17.45;100.00
13732;BME280;6937;56.096;12.664;2023-09-19T06:32:33;98962.25;;;17.44;100.00
13732;BME280;6937;56.096;12.664;2023-09-19T06:34:59;98988.66;;;17.42;100.00
13732;BME280;6937;56.096;12.664;2023-09-19T06:37:27;98991.53;;;17.40;100.00
13732;BME280;6937;56.096;12.664;2023-09-19T06:39:53;99011.41;;;17.33;100.00
13732;BME280;6937;56.096;12.664;2023-09-19T06:42:18;99029.47;;;17.32;100.00
13732;BME280;6937;56.096;12.664;2023-09-19T06:44:44;99028.41;;;17.27;100.00
13732;BME280;6937;56.096;12.664;2023-09-19T06:47:09;99042.19;;;17.32;100.00
13732;BME280;6937;56.096;12.664;2023-09-19T06:49:36;99049.03;;;17.34;100.00
13732;BME280;6937;56.096;12.664;2023-09-19T06:52:01;99054.84;;;17.31;100.00
13732;BME280;6937;56.096;12.664;2023-09-19T06:54:27;99038.63;;;17.31;100.00
13732;BME280;6937;56.096;12.664;2023-09-19T06:56:56;99026.00;;;17.38;100.00
13732;BME280;6937;56.096;12.664;2023-09-19T06:59:24;99005.47;;;17.44;100.00
13732;BME280;6937;56.096;12.664;2023-09-19T07:01:49;98998.47;;;17.50;100.00
13732;BME280;6937;56.096;12.664;2023-09-19T07:04:15;98997.88;;;17.54;100.00
13732;BME280;6937;56.096;12.664;2023-09-19T07:06:42;98987.97;;;17.61;100.00
13732;BME280;6937;56.096;12.664;2023-09-19T07:09:08;99018.22;;;17.50;100.00
13732;BME280;6937;56.096;12.664;2023-09-19T07:11:34;99084.06;;;17.49;100.00
13732;BME280;6937;56.096;12.664;2023-09-19T07:13:59;99137.69;;;17.52;100.00
13732;BME280;6937;56.096;12.664;2023-09-19T07:16:24;99207.84;;;17.46;100.00
13732;BME280;6937;56.096;12.664;2023-09-19T07:18:56;99268.03;;;17.39;100.00
13732;BME280;6937;56.096;12.664;2023-09-19T07:21:22;99334.53;;;17.40;100.00
13732;BME280;6937;56.096;12.664;2023-09-19T07:23:48;99316.00;;;17.37;100.00
13732;BME280;6937;56.096;12.664;2023-09-19T07:26:13;99347.63;;;17.44;100.00
13732;BME280;6937;56.096;12.664;2023-09-19T07:28:39;99386.75;;;17.48;100.00
13732;BME280;6937;56.096;12.664;2023-09-19T07:31:04;99393.66;;;17.50;100.00
13732;BME280;6937;56.096;12.664;2023-09-19T07:33:32;99396.38;;;17.50;100.00
13732;BME280;6937;56.096;12.664;2023-09-19T07:35:57;99429.34;;;17.46;100.00
13732;BME280;6937;56.096;12.664;2023-09-19T07:38:23;99449.94;;;17.47;100.00
13732;BME280;6937;56.096;12.664;2023-09-19T07:40:50;99444.69;;;17.45;100.00
13732;BME280;6937;56.096;12.664;2023-09-19T07:43:15;99474.03;;;17.48;100.00
13732;BME280;6937;56.096;12.664;2023-09-19T07:45:40;99469.09;;;17.52;100.00
13732;BME280;6937;56.096;12.664;2023-09-19T07:48:07;99472.13;;;17.57;100.00
13732;BME280;6937;56.096;12.664;2023-09-19T07:50:39;99486.59;;;17.56;100.00
13732;BME280;6937;56.096;12.664;2023-09-19T07:53:05;99499.59;;;17.60;100.00
13732;BME280;6937;56.096;12.664;2023-09-19T07:55:31;99521.75;;;17.70;100.00
13732;BME280;6937;56.096;12.664;2023-09-19T07:57:59;99554.56;;;17.67;100.00
13732;BME280;6937;56.096;12.664;2023-09-19T08:00:24;99566.69;;;17.71;100.00
13732;BME280;6937;56.096;12.664;2023-09-19T08:02:49;99593.53;;;17.73;100.00
13732;BME280;6937;56.096;12.664;2023-09-19T08:05:17;99606.94;;;17.81;100.00
13732;BME280;6937;56.096;12.664;2023-09-19T08:07:45;99615.63;;;17.91;100.00
13732;BME280;6937;56.096;12.664;2023-09-19T08:10:14;99616.81;;;17.88;100.00
13732;BME280;6937;56.096;12.664;2023-09-19T08:12:42;99613.47;;;17.86;100.00
13732;BME280;6937;56.096;12.664;2023-09-19T08:15:15;99623.91;;;17.75;100.00
13732;BME280;6937;56.096;12.664;2023-09-19T08:17:40;99694.78;;;17.62;100.00
13732;BME280;6937;56.096;12.664;2023-09-19T08:20:07;99788.16;;;17.65;100.00
13732;BME280;6937;56.096;12.664;2023-09-19T08:22:32;99910.25;;;17.68;100.00
13732;BME280;6937;56.096;12.664;2023-09-19T08:24:58;99982.88;;;17.71;100.00
13732;BME280;6937;56.096;12.664;2023-09-19T08:27:24;100018.34;;;17.68;100.00
13732;BME280;6937;56.096;12.664;2023-09-19T08:29:52;100025.78;;;17.66;100.00
13732;BME280;6937;56.096;12.664;2023-09-19T08:32:17;100086.94;;;17.59;100.00
13732;BME280;6937;56.096;12.664;2023-09-19T08:34:48;100134.41;;;17.46;100.00
13732;BME280;6937;56.096;12.664;2023-09-19T08:37:14;100140.38;;;16.17;100.00
13732;BME280;6937;56.096;12.664;2023-09-19T08:39:39;100031.25;;;15.27;100.00
13732;BME280;6937;56.096;12.664;2023-09-19T08:42:04;99934.28;;;14.85;100.00
13732;BME280;6937;56.096;12.664;2023-09-19T08:44:30;99844.22;;;14.38;100.00
13732;BME280;6937;56.096;12.664;2023-09-19T08:47:11;99730.25;;;14.05;100.00
13732;BME280;6937;56.096;12.664;2023-09-19T08:52:22;99531.03;;;13.84;100.00
13732;BME280;6937;56.096;12.664;2023-09-19T08:54:51;99452.84;;;13.87;100.00
13732;BME280;6937;56.096;12.664;2023-09-19T08:57:18;99394.22;;;13.74;100.00
13732;BME280;6937;56.096;12.664;2023-09-19T08:59:50;99347.59;;;13.75;100.00
13732;BME280;6937;56.096;12.664;2023-09-19T09:02:16;99286.34;;;13.79;100.00
13732;BME280;6937;56.096;12.664;2023-09-19T09:04:45;99239.00;;;13.86;100.00
13732;BME280;6937;56.096;12.664;2023-09-19T09:07:11;99209.97;;;13.89;100.00
13732;BME280;6937;56.096;12.664;2023-09-19T09:09:38;99174.69;;;13.92;100.00
13732;BME280;6937;56.096;12.664;2023-09-19T09:12:16;99150.38;;;13.94;100.00
13732;BME280;6937;56.096;12.664;2023-09-19T09:14:46;99129.72;;;13.94;100.00
13732;BME280;6937;56.096;12.664;2023-09-19T09:17:18;99117.59;;;13.98;100.00
13732;BME280;6937;56.096;12.664;2023-09-19T09:19:46;99098.44;;;14.10;100.00
13732;BME280;6937;56.096;12.664;2023-09-19T09:22:13;99079.94;;;14.15;100.00
13732;BME280;6937;56.096;12.664;2023-09-19T09:24:54;99062.59;;;14.25;100.00
13732;BME280;6937;56.096;12.664;2023-09-19T09:27:23;99058.00;;;14.34;100.00
13732;BME280;6937;56.096;12.664;2023-09-19T09:29:50;99041.03;;;14.41;100.00
13732;BME280;6937;56.096;12.664;2023-09-19T09:32:26;99025.97;;;14.55;100.00
13732;BME280;6937;56.096;12.664;2023-09-19T09:34:58;99008.44;;;14.67;100.00
13732;BME280;6937;56.096;12.664;2023-09-19T09:37:24;99006.03;;;14.72;100.00
13732;BME280;6937;56.096;12.664;2023-09-19T09:39:53;99008.94;;;14.85;100.00
13732;BME280;6937;56.096;12.664;2023-09-19T09:42:33;99000.34;;;14.90;100.00
13732;BME280;6937;56.096;12.664;2023-09-19T09:45:19;98990.81;;;15.02;100.00
13732;BME280;6937;56.096;12.664;2023-09-19T09:48:02;98989.47;;;15.21;100.00
13732;BME280;6937;56.096;12.664;2023-09-19T09:50:46;98977.69;;;15.36;100.00
13732;BME280;6937;56.096;12.664;2023-09-19T09:56:06;98984.78;;;15.67;100.00
13732;BME280;6937;56.096;12.664;2023-09-19T09:58:36;98977.81;;;15.72;100.00
13732;BME280;6937;56.096;12.664;2023-09-19T10:01:03;98971.75;;;15.85;100.00
13732;BME280;6937;56.096;12.664;2023-09-19T10:03:37;98966.78;;;16.03;100.00
13732;BME280;6937;56.096;12.664;2023-09-19T10:06:07;98953.41;;;16.31;100.00
13732;BME280;6937;56.096;12.664;2023-09-19T10:09:20;98967.19;;;16.57;100.00
13732;BME280;6937;56.096;12.664;2023-09-19T10:12:07;98991.28;;;16.59;100.00
13732;BME280;6937;56.096;12.664;2023-09-19T10:14:38;99021.38;;;16.62;100.00
13732;BME280;6937;56.096;12.664;2023-09-19T10:17:09;99073.88;;;16.60;100.00
13732;BME280;6937;56.096;12.664;2023-09-19T10:19:54;99124.28;;;16.59;100.00
13732;BME280;6937;56.096;12.664;2023-09-19T10:22:23;99208.81;;;16.66;100.00
13732;BME280;6937;56.096;12.664;2023-09-19T10:24:53;99308.69;;;16.58;100.00
13732;BME280;6937;56.096;12.664;2023-09-19T10:27:19;99466.41;;;16.70;100.00
13732;BME280;6937;56.096;12.664;2023-09-19T10:29:49;99523.88;;;16.71;100.00
13732;BME280;6937;56.096;12.664;2023-09-19T10:32:22;99720.66;;;16.72;100.00
13732;BME280;6937;56.096;12.664;2023-09-19T10:34:49;99840.03;;;16.82;100.00
13732;BME280;6937;56.096;12.664;2023-09-19T10:37:16;99926.69;;;16.96;100.00
13732;BME280;6937;56.096;12.664;2023-09-19T10:39:46;99981.69;;;17.11;100.00
13732;BME280;6937;56.096;12.664;2023-09-19T10:42:14;100019.63;;;17.17;100.00
13732;BME280;6937;56.096;12.664;2023-09-19T10:44:42;100052.38;;;17.30;100.00
13732;BME280;6937;56.096;12.664;2023-09-19T10:47:10;100065.84;;;17.38;100.00
13732;BME280;6937;56.096;12.664;2023-09-19T10:49:43;100080.19;;;17.47;100.00
13732;BME280;6937;56.096;12.664;2023-09-19T10:52:09;100089.28;;;17.62;100.00
13732;BME280;6937;56.096;12.664;2023-09-19T10:54:38;100120.22;;;17.60;100.00
13732;BME280;6937;56.096;12.664;2023-09-19T10:57:09;100150.28;;;17.57;100.00
13732;BME280;6937;56.096;12.664;2023-09-19T10:59:35;100192.19;;;17.61;100.00
13732;BME280;6937;56.096;12.664;2023-09-19T11:02:16;100203.44;;;17.56;100.00
13732;BME280;6937;56.096;12.664;2023-09-19T11:04:42;100247.72;;;17.63;100.00
13732;BME280;6937;56.096;12.664;2023-09-19T11:07:08;100256.19;;;17.68;100.00
13732;BME280;6937;56.096;12.664;2023-09-19T11:09:55;100260.59;;;17.69;100.00
13732;BME280;6937;56.096;12.664;2023-09-19T11:15:02;100307.22;;;17.88;100.00
13732;BME280;6937;56.096;12.664;2023-09-19T11:17:40;100311.59;;;17.88;100.00
13732;BME280;6937;56.096;12.664;2023-09-19T11:30:42;100393.41;;;18.15;100.00
13732;BME280;6937;56.096;12.664;2023-09-19T11:36:02;100457.16;;;18.25;100.00
13732;BME280;6937;56.096;12.664;2023-09-19T11:49:16;100543.25;;;18.38;100.00
13732;BME280;6937;56.096;12.664;2023-09-19T11:51:46;100542.91;;;18.41;100.00
13732;BME280;6937;56.096;12.664;2023-09-19T11:54:14;100543.66;;;18.51;100.00
13732;BME280;6937;56.096;12.664;2023-09-19T11:56:44;100538.91;;;18.61;100.00
13732;BME280;6937;56.096;12.664;2023-09-19T11:59:11;100550.72;;;18.52;100.00
13732;BME280;6937;56.096;12.664;2023-09-19T12:01:38;100524.00;;;18.57;100.00
13732;BME280;6937;56.096;12.664;2023-09-19T12:04:11;100518.78;;;18.56;100.00
13732;BME280;6937;56.096;12.664;2023-09-19T12:06:37;100538.75;;;18.63;100.00
13732;BME280;6937;56.096;12.664;2023-09-19T12:09:13;100548.41;;;18.73;100.00
13732;BME280;6937;56.096;12.664;2023-09-19T12:11:42;100537.03;;;18.86;100.00
13732;BME280;6937;56.096;12.664;2023-09-19T12:14:09;100513.16;;;18.98;100.00
13732;BME280;6937;56.096;12.664;2023-09-19T12:16:35;100515.06;;;18.89;100.00
13732;BME280;6937;56.096;12.664;2023-09-19T12:19:18;100501.38;;;18.74;100.00
13732;BME280;6937;56.096;12.664;2023-09-19T12:22:02;100517.91;;;18.63;100.00
13732;BME280;6937;56.096;12.664;2023-09-19T12:24:29;100508.59;;;18.50;100.00
13732;BME280;6937;56.096;12.664;2023-09-19T12:27:00;100493.03;;;18.44;100.00
13732;BME280;6937;56.096;12.664;2023-09-19T12:29:26;100520.09;;;18.44;100.00
13732;BME280;6937;56.096;12.664;2023-09-19T12:31:57;100532.75;;;18.35;100.00
13732;BME280;6937;56.096;12.664;2023-09-19T12:34:27;100501.13;;;18.27;100.00
13732;BME280;6937;56.096;12.664;2023-09-19T12:37:06;100504.16;;;18.24;100.00
13732;BME280;6937;56.096;12.664;2023-09-19T12:39:39;100506.03;;;18.32;100.00
13732;BME280;6937;56.096;12.664;2023-09-19T12:42:07;100510.09;;;18.28;100.00
13732;BME280;6937;56.096;12.664;2023-09-19T12:44:36;100499.41;;;18.26;100.00
13732;BME280;6937;56.096;12.664;2023-09-19T12:47:09;100491.66;;;18.31;100.00
13732;BME280;6937;56.096;12.664;2023-09-19T12:49:34;100487.97;;;18.41;100.00
13732;BME280;6937;56.096;12.664;2023-09-19T12:52:00;100466.63;;;18.38;100.00
13732;BME280;6937;56.096;12.664;2023-09-19T12:54:37;100470.16;;;18.30;100.00
13732;BME280;6937;56.096;12.664;2023-09-19T12:57:04;100472.56;;;18.25;100.00
13732;BME280;6937;56.096;12.664;2023-09-19T12:59:30;100492.16;;;18.27;100.00
13732;BME280;6937;56.096;12.664;2023-09-19T13:02:04;100492.34;;;18.25;100.00
13732;BME280;6937;56.096;12.664;2023-09-19T13:04:38;100494.69;;;18.20;100.00
13732;BME280;6937;56.096;12.664;2023-09-19T13:07:06;100499.59;;;18.17;100.00
13732;BME280;6937;56.096;12.664;2023-09-19T13:09:34;100468.97;;;18.16;100.00
13732;BME280;6937;56.096;12.664;2023-09-19T13:12:00;100412.66;;;17.88;100.00
13732;BME280;6937;56.096;12.664;2023-09-19T13:14:28;100343.00;;;17.73;100.00
13732;BME280;6937;56.096;12.664;2023-09-19T13:19:47;100228.78;;;17.55;100.00
13732;BME280;6937;56.096;12.664;2023-09-19T13:22:39;100203.09;;;17.51;100.00
13732;BME280;6937;56.096;12.664;2023-09-19T13:25:07;100185.88;;;17.52;100.00
13732;BME280;6937;56.096;12.664;2023-09-19T13:27:33;100183.38;;;17.51;100.00
13732;BME280;6937;56.096;12.664;2023-09-19T13:29:59;100166.13;;;17.52;100.00
13732;BME280;6937;56.096;12.664;2023-09-19T13:32:25;100151.63;;;17.61;100.00
13732;BME280;6937;56.096;12.664;2023-09-19T13:34:51;100163.66;;;17.58;100.00
13732;BME280;6937;56.096;12.664;2023-09-19T13:37:17;100161.25;;;17.63;100.00
13732;BME280;6937;56.096;12.664;2023-09-19T13:39:43;100140.81;;;17.69;100.00